Time;durP1;ratioP1;P1;durP2;ratioP2;P2;SDS_P1;SDS_P2;PMS_P1;PMS_P2;Temp;Humidity;BMP_temperature;BMP_pressure;BME280_temperature;BME280_humidity;BME280_pressure;Samples;Min_cycle;Max_cycle;Signal;HPM_P1;HPM_P2
2023/10/01 00:01:35;;;;;;;17.42;7.05;;;15.60;99.90;;;;;;5073604;28;20580;-71
2023/10/01 00:04:06;;;;;;;16.95;7.25;;;15.60;99.90;;;;;;5073864;28;20130;-71
2023/10/01 00:06:34;;;;;;;16.27;8.13;;;15.60;99.90;;;;;;5074096;28;20037;-71
2023/10/01 00:09:01;;;;;;;14.07;7.68;;;15.60;99.90;;;;;;5073744;28;20049;-71
2023/10/01 00:11:27;;;;;;;18.70;8.52;;;15.50;99.90;;;;;;5073764;28;20040;-71
2023/10/01 00:13:53;;;;;;;19.15;8.27;;;15.50;99.90;;;;;;5073315;28;20565;-71
2023/10/01 00:16:19;;;;;;;18.60;8.20;;;15.50;99.90;;;;;;5073425;28;20067;-71
2023/10/01 00:18:47;;;;;;;23.95;8.65;;;15.40;99.90;;;;;;5073314;28;20488;-71
2023/10/01 00:21:13;;;;;;;18.83;8.35;;;15.30;99.90;;;;;;5073192;28;20561;-71
2023/10/01 00:23:40;;;;;;;17.65;8.27;;;15.30;99.90;;;;;;5072589;28;20093;-71
2023/10/01 00:26:06;;;;;;;17.02;8.32;;;15.20;99.90;;;;;;5073152;28;20501;-71
2023/10/01 00:28:31;;;;;;;20.08;7.97;;;15.20;99.90;;;;;;5073075;28;20042;-71
2023/10/01 00:30:57;;;;;;;19.05;9.45;;;15.20;99.90;;;;;;5073048;28;20048;-71
2023/10/01 00:33:23;;;;;;;16.83;8.75;;;15.20;99.90;;;;;;5073179;28;20045;-71
2023/10/01 00:35:48;;;;;;;17.75;8.32;;;15.30;99.90;;;;;;5072948;28;20408;-71
2023/10/01 00:38:16;;;;;;;21.38;9.25;;;15.30;99.90;;;;;;5072855;28;20098;-71
2023/10/01 00:40:44;;;;;;;18.52;8.30;;;15.30;99.90;;;;;;5072814;28;20090;-71
2023/10/01 00:43:11;;;;;;;16.10;8.23;;;15.30;99.90;;;;;;5073011;28;20483;-71
2023/10/01 00:45:36;;;;;;;20.38;8.73;;;15.30;99.90;;;;;;5072781;28;20055;-71
2023/10/01 00:48:06;;;;;;;20.40;8.65;;;15.40;99.90;;;;;;5072659;28;20028;-71
2023/10/01 00:50:32;;;;;;;17.90;8.13;;;15.30;99.90;;;;;;5072638;28;20040;-71
2023/10/01 00:52:58;;;;;;;19.08;8.32;;;15.30;99.90;;;;;;5072633;28;20048;-70
2023/10/01 00:55:24;;;;;;;17.27;7.90;;;15.30;99.90;;;;;;5072503;28;20051;-71
2023/10/01 00:57:54;;;;;;;16.73;8.38;;;15.30;99.90;;;;;;5072502;28;20041;-71
2023/10/01 01:00:19;;;;;;;14.43;8.18;;;15.30;99.90;;;;;;5072403;28;20040;-71
2023/10/01 01:02:57;;;;;;;13.40;7.50;;;15.20;99.90;;;;;;5072749;28;20044;-71
2023/10/01 01:05:34;;;;;;;13.55;7.57;;;15.20;99.90;;;;;;5072590;28;20493;-71
2023/10/01 01:08:21;;;;;;;17.58;8.43;;;15.20;99.90;;;;;;5072382;28;20040;-71
2023/10/01 01:10:49;;;;;;;18.95;8.68;;;15.20;99.90;;;;;;5072324;28;20044;-71
2023/10/01 01:13:18;;;;;;;17.77;8.02;;;15.20;99.90;;;;;;5072491;28;20182;-71
2023/10/01 01:15:51;;;;;;;24.45;9.68;;;15.20;99.90;;;;;;5072244;28;20036;-71
2023/10/01 01:18:20;;;;;;;18.00;8.90;;;15.20;99.90;;;;;;5055648;28;20037;-71
2023/10/01 01:20:47;;;;;;;17.30;8.73;;;15.30;99.90;;;;;;5072236;28;20049;-71
2023/10/01 01:23:21;;;;;;;21.60;8.93;;;15.30;99.90;;;;;;5072256;28;20036;-71
2023/10/01 01:25:49;;;;;;;15.95;8.45;;;15.40;99.90;;;;;;5072170;28;20041;-71
2023/10/01 01:28:15;;;;;;;18.63;9.07;;;15.40;99.90;;;;;;5072188;28;20099;-71
2023/10/01 01:30:47;;;;;;;15.68;9.02;;;15.40;99.90;;;;;;5072140;28;20048;-71
2023/10/01 01:33:13;;;;;;;15.93;8.57;;;15.40;99.90;;;;;;5071675;28;20130;-71
2023/10/01 01:35:39;;;;;;;15.30;8.50;;;15.40;99.90;;;;;;5071644;28;20091;-72
2023/10/01 01:38:07;;;;;;;15.35;8.60;;;15.40;99.90;;;;;;5071948;28;20428;-72
2023/10/01 01:40:36;;;;;;;17.95;8.70;;;15.40;99.90;;;;;;5071946;28;20505;-71
2023/10/01 01:43:15;;;;;;;13.98;8.45;;;15.40;99.90;;;;;;5072000;28;20462;-72
2023/10/01 01:45:44;;;;;;;16.88;9.05;;;15.40;99.90;;;;;;5072073;28;20043;-71
2023/10/01 01:48:25;;;;;;;21.55;8.98;;;15.40;99.90;;;;;;5071881;28;20115;-71
2023/10/01 01:50:54;;;;;;;19.30;8.30;;;15.40;99.90;;;;;;5071833;28;20049;-70
2023/10/01 01:53:20;;;;;;;20.67;9.50;;;15.40;99.90;;;;;;5071739;28;20059;-71
2023/10/01 01:55:47;;;;;;;14.00;8.30;;;15.40;99.90;;;;;;5071798;28;20554;-71
2023/10/01 01:58:15;;;;;;;17.67;8.73;;;15.50;99.90;;;;;;5071699;28;20505;-71
2023/10/01 02:03:32;;;;;;;15.30;8.07;;;15.50;99.90;;;;;;5071669;28;20485;-71
2023/10/01 02:05:58;;;;;;;17.63;8.90;;;15.50;99.90;;;;;;5071796;28;20107;-71
2023/10/01 02:08:24;;;;;;;16.92;9.02;;;15.50;99.90;;;;;;5071681;28;20187;-70
2023/10/01 02:10:55;;;;;;;15.65;9.07;;;15.50;99.90;;;;;;5071686;28;20051;-71
2023/10/01 02:13:24;;;;;;;17.25;9.70;;;15.50;99.90;;;;;;5071818;28;20049;-72
2023/10/01 02:15:51;;;;;;;15.98;9.40;;;15.50;99.90;;;;;;5071508;28;20079;-72
2023/10/01 02:18:17;;;;;;;14.57;8.88;;;15.50;99.90;;;;;;5071620;28;20409;-72
2023/10/01 02:20:44;;;;;;;17.30;9.38;;;15.50;99.90;;;;;;5072981;28;20037;-72
2023/10/01 02:23:12;;;;;;;13.48;9.30;;;15.50;99.90;;;;;;5071442;28;20044;-72
2023/10/01 02:25:46;;;;;;;17.50;8.98;;;15.50;99.90;;;;;;5071476;28;20136;-72
2023/10/01 02:28:15;;;;;;;16.33;9.60;;;15.50;99.90;;;;;;5072090;28;20094;-72
2023/10/01 02:30:44;;;;;;;19.55;10.00;;;15.50;99.90;;;;;;5071498;28;20040;-70
2023/10/01 02:33:17;;;;;;;15.52;9.75;;;15.40;99.90;;;;;;5071328;28;20044;-70
2023/10/01 02:35:50;;;;;;;;;;;15.40;99.90;;;;;;5071859;28;20040;-70
2023/10/01 02:41:02;;;;;;;14.88;9.48;;;15.40;99.90;;;;;;5071317;28;20044;-70
2023/10/01 02:43:41;;;;;;;19.20;10.05;;;15.40;99.90;;;;;;5071252;28;20033;-70
2023/10/01 02:46:12;;;;;;;16.98;9.57;;;15.40;99.90;;;;;;5073534;28;20051;-70
2023/10/01 02:48:42;;;;;;;14.82;9.13;;;15.50;99.90;;;;;;5074979;28;20404;-70
2023/10/01 02:51:14;;;;;;;14.93;9.45;;;15.50;99.90;;;;;;5074944;28;20051;-71
2023/10/01 02:54:01;;;;;;;13.75;8.95;;;15.50;99.90;;;;;;5074908;28;20062;-71
2023/10/01 02:56:34;;;;;;;16.48;9.60;;;15.50;99.90;;;;;;5074891;28;20048;-71
2023/10/01 02:59:12;;;;;;;17.10;9.73;;;15.50;99.90;;;;;;5075410;28;20044;-71
2023/10/01 03:01:42;;;;;;;17.20;9.93;;;15.50;99.90;;;;;;5074710;28;20043;-71
2023/10/01 03:04:29;;;;;;;13.88;9.52;;;15.40;99.90;;;;;;5074721;28;20043;-71
2023/10/01 03:06:57;;;;;;;18.23;10.10;;;15.50;99.90;;;;;;5074961;28;20524;-71
2023/10/01 03:09:32;;;;;;;17.60;10.50;;;15.50;99.90;;;;;;5074616;28;20166;-71
2023/10/01 03:14:45;;;;;;;20.52;10.73;;;15.50;99.90;;;;;;5074466;28;20413;-70
2023/10/01 03:17:17;;;;;;;15.73;10.40;;;15.50;99.90;;;;;;5074278;28;20036;-70
2023/10/01 03:19:52;;;;;;;17.63;10.27;;;15.40;99.90;;;;;;5074460;28;20067;-70
2023/10/01 03:22:23;;;;;;;16.38;10.40;;;15.50;99.90;;;;;;5074710;28;20048;-70
2023/10/01 03:24:50;;;;;;;15.77;9.75;;;15.50;99.90;;;;;;5074316;28;20119;-70
2023/10/01 03:29:45;;;;;;;13.40;9.77;;;15.40;99.90;;;;;;5074531;28;20056;-71
2023/10/01 03:32:29;;;;;;;17.58;9.75;;;15.50;99.90;;;;;;5074440;28;20449;-71
2023/10/01 03:35:04;;;;;;;14.55;10.65;;;15.40;99.90;;;;;;5074420;28;20063;-71
2023/10/01 03:37:37;;;;;;;14.27;10.13;;;15.50;99.90;;;;;;5074252;28;20439;-71
2023/10/01 03:40:21;;;;;;;15.95;9.98;;;15.40;99.90;;;;;;5074048;28;20041;-71
2023/10/01 03:42:53;;;;;;;17.90;9.80;;;15.40;99.90;;;;;;5074331;28;20116;-71
2023/10/01 03:47:57;;;;;;;17.05;10.02;;;15.40;99.90;;;;;;5074169;28;20044;-71
2023/10/01 03:50:31;;;;;;;15.18;10.32;;;15.40;99.90;;;;;;5075714;28;20049;-71
2023/10/01 03:52:59;;;;;;;14.30;9.40;;;15.40;99.90;;;;;;5073909;28;20083;-71
2023/10/01 03:55:28;;;;;;;14.55;9.55;;;15.40;99.90;;;;;;5074029;28;20401;-70
2023/10/01 03:58:42;;;;;;;15.85;9.27;;;15.40;99.90;;;;;;5072849;28;20124;-70
2023/10/01 04:00:41;;;;;;;14.70;9.15;;;15.50;99.90;;;;;;5070058;28;20052;-70
2023/10/01 04:03:17;;;;;;;14.85;8.70;;;15.40;99.90;;;;;;5073924;28;20041;-70
2023/10/01 04:05:46;;;;;;;17.17;9.55;;;15.40;99.90;;;;;;5073632;28;20041;-70
2023/10/01 04:08:13;;;;;;;17.27;9.25;;;15.40;99.90;;;;;;5073581;28;20489;-70
2023/10/01 04:10:39;;;;;;;17.58;9.30;;;15.40;99.90;;;;;;5073483;28;20050;-70
2023/10/01 04:13:12;;;;;;;15.93;9.30;;;15.50;99.90;;;;;;5073486;28;20082;-71
2023/10/01 04:15:43;;;;;;;16.40;8.85;;;15.40;99.90;;;;;;5056947;28;20401;-71
2023/10/01 04:18:18;;;;;;;15.57;8.32;;;15.40;99.90;;;;;;5073291;28;20044;-71
2023/10/01 04:23:33;;;;;;;18.15;9.13;;;15.40;99.90;;;;;;5073473;28;20044;-71
2023/10/01 04:26:04;;;;;;;15.23;8.52;;;15.40;99.90;;;;;;5073157;28;20072;-71
2023/10/01 04:28:54;;;;;;;16.02;8.60;;;15.40;99.90;;;;;;5073225;28;20040;-71
2023/10/01 04:34:12;;;;;;;16.67;8.30;;;15.40;99.90;;;;;;5073065;28;20044;-72
2023/10/01 04:36:51;;;;;;;14.88;8.55;;;15.40;99.90;;;;;;5073039;28;20146;-72
2023/10/01 04:39:17;;;;;;;16.73;9.07;;;15.40;99.90;;;;;;5072971;28;20062;-71
2023/10/01 04:41:45;;;;;;;14.38;8.82;;;15.40;99.90;;;;;;5072818;28;20036;-71
2023/10/01 04:44:19;;;;;;;15.35;9.02;;;15.40;99.90;;;;;;5056372;28;20037;-72
2023/10/01 04:46:45;;;;;;;16.73;8.82;;;15.40;99.90;;;;;;5072818;28;20040;-72
2023/10/01 04:49:27;;;;;;;15.35;8.65;;;15.40;99.90;;;;;;5072949;28;20046;-72
2023/10/01 04:52:10;;;;;;;17.98;8.32;;;15.40;99.90;;;;;;5072714;28;20086;-71
2023/10/01 04:54:37;;;;;;;15.18;8.25;;;15.40;99.90;;;;;;5072892;28;20078;-71
2023/10/01 04:57:03;;;;;;;13.55;7.60;;;15.40;99.90;;;;;;5072559;28;20046;-71
2023/10/01 04:59:29;;;;;;;15.35;8.65;;;15.40;99.90;;;;;;5072436;28;20089;-71
2023/10/01 05:01:58;;;;;;;17.80;8.68;;;15.40;99.90;;;;;;5072438;28;20115;-71
2023/10/01 05:04:25;;;;;;;13.65;8.68;;;15.40;99.90;;;;;;5072623;28;20048;-71
2023/10/01 05:07:00;;;;;;;21.05;9.90;;;15.40;99.90;;;;;;5072404;28;20043;-71
2023/10/01 05:09:28;;;;;;;15.80;8.45;;;15.40;99.90;;;;;;5072285;28;20051;-71
2023/10/01 05:11:55;;;;;;;16.25;9.20;;;15.40;99.90;;;;;;5073570;28;20040;-71
2023/10/01 05:14:22;;;;;;;17.38;8.60;;;15.40;99.90;;;;;;5072219;28;20044;-71
2023/10/01 05:16:49;;;;;;;20.58;9.57;;;15.40;99.90;;;;;;5072149;28;20041;-71
2023/10/01 05:19:15;;;;;;;13.10;8.60;;;15.40;99.90;;;;;;5072457;28;20059;-71
2023/10/01 05:21:46;;;;;;;15.45;9.10;;;15.40;99.90;;;;;;5072119;28;20037;-71
2023/10/01 05:24:15;;;;;;;17.77;9.52;;;15.40;99.90;;;;;;5072132;28;20028;-71
2023/10/01 05:26:43;;;;;;;18.10;9.38;;;15.40;99.90;;;;;;5072114;28;20127;-71
2023/10/01 05:29:20;;;;;;;15.35;9.45;;;15.40;99.90;;;;;;5072343;28;20040;-71
2023/10/01 05:31:45;;;;;;;16.30;9.15;;;15.40;99.90;;;;;;5072106;28;20043;-72
2023/10/01 05:34:11;;;;;;;14.02;8.30;;;15.40;99.90;;;;;;5071941;28;20041;-72
2023/10/01 05:36:37;;;;;;;15.60;9.55;;;15.40;99.90;;;;;;5072266;28;20040;-72
2023/10/01 05:39:11;;;;;;;17.48;9.93;;;15.30;99.90;;;;;;5072170;28;20076;-71
2023/10/01 05:41:37;;;;;;;16.20;9.55;;;15.30;99.90;;;;;;5071898;28;20048;-72
2023/10/01 05:44:04;;;;;;;18.42;10.35;;;15.30;99.90;;;;;;5072097;28;20040;-72
2023/10/01 05:46:30;;;;;;;20.27;10.63;;;15.40;99.90;;;;;;5071881;28;20049;-72
2023/10/01 05:49:00;;;;;;;16.02;9.27;;;15.30;99.90;;;;;;5071880;28;20040;-71
2023/10/01 05:51:45;;;;;;;18.45;10.05;;;15.30;99.90;;;;;;5071842;28;20044;-71
2023/10/01 05:54:21;;;;;;;17.77;9.55;;;15.40;99.90;;;;;;5055057;28;20040;-71
2023/10/01 05:56:48;;;;;;;16.27;9.20;;;15.40;99.90;;;;;;5071834;28;20048;-71
2023/10/01 05:59:20;;;;;;;16.08;9.02;;;15.40;99.90;;;;;;5071800;28;20041;-71
2023/10/01 06:01:48;;;;;;;19.23;8.90;;;15.40;99.90;;;;;;5071728;28;20101;-71
2023/10/01 06:04:17;;;;;;;15.93;9.43;;;15.30;99.90;;;;;;5071679;28;20135;-71
2023/10/01 06:06:45;;;;;;;16.58;8.63;;;15.30;99.90;;;;;;5073214;28;20086;-71
2023/10/01 06:09:14;;;;;;;17.92;8.35;;;15.30;99.90;;;;;;5071686;28;20063;-71
2023/10/01 06:11:48;;;;;;;16.42;8.40;;;15.30;99.90;;;;;;5071875;28;20048;-71
2023/10/01 06:14:38;;;;;;;18.77;8.77;;;15.30;99.90;;;;;;5071634;28;20055;-71
2023/10/01 06:17:06;;;;;;;16.20;8.40;;;15.30;99.90;;;;;;5071391;28;20045;-71
2023/10/01 06:19:33;;;;;;;15.10;8.25;;;15.30;99.90;;;;;;5071512;28;20056;-72
2023/10/01 06:22:12;;;;;;;18.58;8.27;;;15.30;99.90;;;;;;5075331;28;20041;-72
2023/10/01 06:24:43;;;;;;;17.88;8.35;;;15.30;99.90;;;;;;5075754;28;20063;-71
2023/10/01 06:27:12;;;;;;;17.90;8.65;;;15.30;99.90;;;;;;5075476;28;20044;-71
2023/10/01 06:29:51;;;;;;;14.73;7.65;;;15.30;99.90;;;;;;5075484;28;20051;-71
2023/10/01 06:32:17;;;;;;;15.90;8.10;;;15.20;99.90;;;;;;5075425;28;20033;-71
2023/10/01 06:34:45;;;;;;;18.77;8.35;;;15.20;99.90;;;;;;5075281;28;20033;-71
2023/10/01 06:37:12;;;;;;;16.38;7.95;;;15.30;99.90;;;;;;5075246;28;20055;-71
2023/10/01 06:39:40;;;;;;;14.60;7.90;;;15.20;99.90;;;;;;5075116;28;20501;-71
2023/10/01 06:42:19;;;;;;;19.23;8.50;;;15.20;99.90;;;;;;5075163;28;20044;-71
2023/10/01 06:44:48;;;;;;;18.95;9.00;;;15.20;99.90;;;;;;5075066;28;20051;-70
2023/10/01 06:47:15;;;;;;;19.13;8.50;;;15.20;99.90;;;;;;5075311;28;20078;-70
2023/10/01 06:49:57;;;;;;;17.35;8.25;;;15.20;99.90;;;;;;5075005;28;20036;-70
2023/10/01 06:52:24;;;;;;;16.95;8.45;;;15.20;99.90;;;;;;5074972;28;20489;-70
2023/10/01 06:54:50;;;;;;;21.20;8.60;;;15.20;99.90;;;;;;5075351;28;20048;-70
2023/10/01 06:57:19;;;;;;;18.25;7.97;;;15.20;99.90;;;;;;5074910;28;20043;-70
2023/10/01 06:59:45;;;;;;;15.95;7.97;;;15.20;99.90;;;;;;5074742;28;20091;-70
2023/10/01 07:02:12;;;;;;;18.40;8.27;;;15.20;99.90;;;;;;5075061;28;20052;-70
2023/10/01 07:04:38;;;;;;;18.13;8.07;;;15.30;99.90;;;;;;5074910;28;20045;-70
2023/10/01 07:07:20;;;;;;;18.17;8.20;;;15.30;99.90;;;;;;5075523;28;20119;-70
2023/10/01 07:09:49;;;;;;;17.35;8.88;;;15.30;99.90;;;;;;5074922;28;20048;-70
2023/10/01 07:12:17;;;;;;;14.15;8.77;;;15.30;99.90;;;;;;5074621;28;20085;-70
2023/10/01 07:14:43;;;;;;;16.27;8.18;;;15.30;99.90;;;;;;5074496;28;20052;-71
2023/10/01 07:17:15;;;;;;;18.77;8.13;;;15.40;99.90;;;;;;5074421;28;20117;-71
2023/10/01 07:19:45;;;;;;;17.20;7.85;;;15.40;99.90;;;;;;5074437;28;20045;-71
2023/10/01 07:22:14;;;;;;;16.30;7.72;;;15.40;99.90;;;;;;5074438;28;20040;-71
2023/10/01 07:24:40;;;;;;;14.93;7.90;;;15.50;99.90;;;;;;5074294;28;20489;-71
2023/10/01 07:27:10;;;;;;;22.00;9.18;;;15.50;99.90;;;;;;5074323;28;20052;-71
2023/10/01 07:29:41;;;;;;;17.33;7.57;;;15.50;99.90;;;;;;5074362;28;20083;-71
2023/10/01 07:32:08;;;;;;;18.92;8.20;;;15.50;99.90;;;;;;5073271;28;20040;-71
2023/10/01 07:35:06;;;;;;;18.92;8.38;;;15.50;99.90;;;;;;5074381;28;20051;-71
2023/10/01 07:37:33;;;;;;;17.20;7.90;;;15.60;99.90;;;;;;5074460;28;20040;-71
2023/10/01 07:40:09;;;;;;;16.75;7.35;;;15.50;99.90;;;;;;5074063;28;20052;-71
2023/10/01 07:42:46;;;;;;;15.20;8.40;;;15.60;99.90;;;;;;5074156;28;20084;-70
2023/10/01 07:45:23;;;;;;;17.15;8.13;;;15.60;99.90;;;;;;5073976;28;20397;-71
2023/10/01 07:47:49;;;;;;;16.45;7.85;;;15.60;99.90;;;;;;5074015;28;20040;-71
2023/10/01 07:50:16;;;;;;;16.25;7.80;;;15.60;99.90;;;;;;5073972;28;20046;-71
2023/10/01 07:52:58;;;;;;;14.80;7.55;;;15.70;99.90;;;;;;5073871;28;20471;-71
2023/10/01 07:55:35;;;;;;;13.90;7.57;;;15.70;99.90;;;;;;5075086;28;20435;-71
2023/10/01 08:00:47;;;;;;;15.23;7.75;;;15.90;99.90;;;;;;5073759;28;20044;-72
2023/10/01 08:05:49;;;;;;;;;;;16.00;99.90;;;;;;5074152;28;20051;-71
2023/10/01 08:08:37;;;;;;;11.70;7.30;;;16.00;99.90;;;;;;5073656;28;20384;-71
2023/10/01 08:13:51;;;;;;;15.85;7.75;;;16.20;99.90;;;;;;5073459;28;20052;-71
2023/10/01 08:16:16;;;;;;;17.67;7.97;;;16.30;99.90;;;;;;5073565;28;20070;-70
2023/10/01 08:18:46;;;;;;;18.40;8.55;;;16.30;99.90;;;;;;5073350;28;20472;-70
2023/10/01 08:21:17;;;;;;;14.98;7.68;;;16.40;99.90;;;;;;5073332;28;20079;-70
2023/10/01 08:23:54;;;;;;;15.18;8.05;;;16.30;99.90;;;;;;5073222;28;20037;-70
2023/10/01 08:29:06;;;;;;;16.40;7.63;;;16.30;99.90;;;;;;5073202;28;20049;-71
2023/10/01 08:34:27;;;;;;;15.05;7.53;;;16.30;99.90;;;;;;5073112;28;20501;-71
2023/10/01 08:37:06;;;;;;;13.77;6.70;;;16.30;99.90;;;;;;5073689;28;20123;-72
2023/10/01 08:39:47;;;;;;;17.52;7.82;;;16.40;99.90;;;;;;5072943;28;20040;-71
2023/10/01 08:42:16;;;;;;;15.93;7.80;;;16.40;99.90;;;;;;5073155;28;20079;-71
2023/10/01 08:44:52;;;;;;;16.08;7.55;;;16.40;99.90;;;;;;5055665;28;20043;-71
2023/10/01 08:47:31;;;;;;;14.25;7.28;;;16.50;99.90;;;;;;5072793;28;20048;-72
2023/10/01 08:50:27;;;;;;;16.02;7.35;;;16.50;99.90;;;;;;5072779;28;20048;-72
2023/10/01 08:52:58;;;;;;;15.73;7.82;;;16.60;99.90;;;;;;5072811;28;20094;-72
2023/10/01 09:00:51;;;;;;;16.25;7.78;;;17.00;99.90;;;;;;5072662;28;20048;-72
2023/10/01 09:03:26;;;;;;;16.13;7.35;;;17.50;99.90;;;;;;5072779;28;20047;-71
2023/10/01 09:06:24;;;;;;;17.25;7.32;;;18.30;99.90;;;;;;5073687;28;20055;-71
2023/10/01 09:08:54;;;;;;;17.30;7.18;;;18.80;99.90;;;;;;5072841;28;20076;-70
2023/10/01 09:11:42;;;;;;;16.40;7.30;;;18.90;99.90;;;;;;5072333;28;20102;-70
2023/10/01 09:14:25;;;;;;;15.65;7.25;;;18.80;99.90;;;;;;5072283;28;20048;-70
2023/10/01 09:16:57;;;;;;;16.90;7.22;;;18.90;99.90;;;;;;5072347;28;20520;-70
2023/10/01 09:19:30;;;;;;;16.73;7.88;;;19.00;99.90;;;;;;5072251;28;20040;-70
2023/10/01 09:25:13;;;;;;;16.98;7.15;;;19.10;99.90;;;;;;5072083;28;20501;-70
2023/10/01 09:27:57;;;;;;;18.05;7.32;;;19.10;99.90;;;;;;5072161;28;20130;-70
2023/10/01 09:30:26;;;;;;;17.20;6.97;;;19.50;99.90;;;;;;5072376;28;20063;-71
2023/10/01 09:32:53;;;;;;;20.45;8.10;;;19.80;99.90;;;;;;5072057;28;20638;-71
2023/10/01 09:35:30;;;;;;;14.73;7.07;;;19.70;99.90;;;;;;5071991;28;20083;-71
2023/10/01 09:38:18;;;;;;;16.77;7.47;;;19.70;99.90;;;;;;5072273;28;20063;-70
2023/10/01 09:40:46;;;;;;;17.02;7.82;;;19.60;99.90;;;;;;5071922;28;20519;-70
2023/10/01 09:43:19;;;;;;;14.70;7.07;;;19.50;99.90;;;;;;5072110;28;20133;-70
2023/10/01 09:45:51;;;;;;;14.68;7.68;;;19.30;99.90;;;;;;5071940;28;20071;-70
2023/10/01 09:48:33;;;;;;;15.68;7.78;;;19.20;99.90;;;;;;5071894;28;20417;-70
2023/10/01 09:51:15;;;;;;;16.95;7.50;;;19.10;99.90;;;;;;5071878;28;20048;-70
2023/10/01 09:53:48;;;;;;;16.52;7.18;;;19.00;99.90;;;;;;5071753;28;20032;-70
2023/10/01 09:56:29;;;;;;;15.27;7.18;;;19.00;99.90;;;;;;5054321;28;20051;-70
2023/10/01 09:58:58;;;;;;;16.15;7.78;;;18.90;99.90;;;;;;5072074;28;20056;-72
2023/10/01 10:01:27;;;;;;;16.52;7.18;;;18.90;99.90;;;;;;5071753;28;20045;-71
2023/10/01 10:03:56;;;;;;;14.23;7.43;;;19.00;99.90;;;;;;5071625;28;20094;-71
2023/10/01 10:06:25;;;;;;;16.90;7.10;;;19.20;99.90;;;;;;5071684;28;20052;-71
2023/10/01 10:09:25;;;;;;;16.02;7.68;;;19.30;99.90;;;;;;5071930;28;20044;-70
2023/10/01 10:11:40;;;;;;;13.18;6.63;;;19.30;99.90;;;;;;5071320;28;20052;-70
2023/10/01 10:14:27;;;;;;;16.45;7.78;;;19.30;99.90;;;;;;5071566;28;20049;-70
2023/10/01 10:17:01;;;;;;;16.75;7.45;;;19.40;99.90;;;;;;5071536;28;20055;-71
2023/10/01 10:19:30;;;;;;;16.13;6.85;;;19.40;99.90;;;;;;5071660;28;20040;-71
2023/10/01 10:24:31;;;;;;;19.27;7.70;;;19.60;99.90;;;;;;5071944;28;20052;-71
2023/10/01 10:27:03;;;;;;;18.55;7.90;;;19.90;99.90;;;;;;5071762;28;20162;-72
2023/10/01 10:29:47;;;;;;;17.60;7.97;;;20.30;99.90;;;;;;5071886;28;20043;-72
2023/10/01 10:32:16;;;;;;;18.20;7.95;;;20.90;99.90;;;;;;5071662;28;20045;-71
2023/10/01 10:35:03;;;;;;;18.92;7.90;;;21.40;99.90;;;;;;5071821;28;20040;-71
2023/10/01 10:37:35;;;;;;;18.90;9.25;;;21.40;99.90;;;;;;5071402;28;20040;-70
2023/10/01 10:43:02;;;;;;;15.30;7.53;;;21.60;99.90;;;;;;5071649;28;20048;-70
2023/10/01 10:45:46;;;;;;;17.10;7.38;;;21.60;99.90;;;;;;5071546;28;20045;-72
2023/10/01 10:48:21;;;;;;;15.48;7.30;;;21.40;99.90;;;;;;5071304;28;20075;-72
2023/10/01 10:51:02;;;;;;;15.50;7.53;;;21.10;99.90;;;;;;5071274;28;20076;-72
2023/10/01 10:53:29;;;;;;;16.20;8.07;;;20.90;99.90;;;;;;5071499;28;20078;-72
2023/10/01 10:56:01;;;;;;;17.02;7.97;;;20.70;99.90;;;;;;5071509;28;20067;-72
2023/10/01 10:59:01;;;;;;;18.90;8.13;;;20.50;99.90;;;;;;5071292;28;20048;-72
2023/10/01 11:01:43;;;;;;;18.52;8.75;;;20.40;99.90;;;;;;5069887;28;20060;-72
2023/10/01 11:04:10;;;;;;;17.98;7.53;;;20.20;99.90;;;;;;5071138;28;20506;-71
2023/10/01 11:06:39;;;;;;;15.35;7.78;;;20.10;99.90;;;;;;5072470;28;20041;-71
2023/10/01 11:09:22;;;;;;;17.98;8.05;;;20.10;99.90;;;;;;5074675;28;20041;-71
2023/10/01 11:11:49;;;;;;;17.38;7.50;;;20.10;99.90;;;;;;5074701;28;20517;-71
2023/10/01 11:14:16;;;;;;;20.92;8.85;;;20.20;99.90;;;;;;5074785;28;20036;-71
2023/10/01 11:16:44;;;;;;;15.50;8.15;;;20.30;99.90;;;;;;5074407;28;20045;-71
2023/10/01 11:19:16;;;;;;;17.67;7.95;;;20.50;99.90;;;;;;5074512;28;20080;-71
2023/10/01 11:21:55;;;;;;;20.23;8.57;;;20.60;99.90;;;;;;5074565;28;20508;-71
2023/10/01 11:24:29;;;;;;;20.08;8.25;;;20.80;99.90;;;;;;5074519;28;20047;-71
2023/10/01 11:27:25;;;;;;;15.25;7.90;;;21.00;99.90;;;;;;5074788;28;20041;-71
2023/10/01 11:30:13;;;;;;;15.68;7.05;;;21.30;99.90;;;;;;5074981;28;20036;-72
2023/10/01 11:33:02;;;;;;;15.43;7.30;;;21.40;99.90;;;;;;5074413;28;20072;-72
2023/10/01 11:35:32;;;;;;;19.20;8.77;;;21.50;99.90;;;;;;5074265;28;20044;-72
2023/10/01 11:38:20;;;;;;;17.90;8.43;;;21.40;99.90;;;;;;5057482;28;20042;-72
2023/10/01 11:43:43;;;;;;;18.42;8.80;;;21.30;99.90;;;;;;5074566;28;20131;-72
2023/10/01 11:46:19;;;;;;;14.00;7.13;;;21.30;99.90;;;;;;5074239;28;20037;-70
2023/10/01 11:49:10;;;;;;;22.73;8.65;;;21.20;99.90;;;;;;5074225;28;20041;-70
2023/10/01 11:52:02;;;;;;;17.70;8.43;;;21.30;99.90;;;;;;5073982;28;20089;-70
2023/10/01 11:54:43;;;;;;;14.40;7.68;;;21.40;99.90;;;;;;5073828;28;20044;-71
2023/10/01 12:00:01;;;;;;;16.48;8.05;;;21.50;99.90;;;;;;5073632;28;20045;-72
2023/10/01 12:02:32;;;;;;;18.98;8.80;;;21.50;99.90;;;;;;5073958;28;20041;-72
2023/10/01 12:05:02;;;;;;;18.50;8.45;;;21.50;99.90;;;;;;5073774;28;20044;-72
2023/10/01 12:07:39;;;;;;;16.90;7.78;;;21.60;99.90;;;;;;5074047;28;20048;-72
2023/10/01 12:10:07;;;;;;;17.95;8.57;;;21.60;99.90;;;;;;5073639;28;20087;-72
2023/10/01 12:12:39;;;;;;;17.83;8.15;;;21.60;99.90;;;;;;5074063;28;20484;-72
2023/10/01 12:17:54;;;;;;;17.08;7.97;;;21.70;99.90;;;;;;5072629;28;20095;-71
2023/10/01 12:20:23;;;;;;;19.80;9.07;;;21.70;99.90;;;;;;5073256;28;20447;-71
2023/10/01 12:23:11;;;;;;;15.07;7.55;;;21.80;99.90;;;;;;5073283;28;20033;-71
2023/10/01 12:25:46;;;;;;;18.77;8.07;;;21.80;99.90;;;;;;5073262;28;20401;-70
2023/10/01 12:28:23;;;;;;;17.42;8.10;;;21.80;99.90;;;;;;5073197;28;20119;-70
2023/10/01 12:31:08;;;;;;;14.60;7.60;;;21.80;99.90;;;;;;5073446;28;20048;-71
2023/10/01 12:33:43;;;;;;;16.33;8.60;;;22.00;99.90;;;;;;5073033;28;20123;-71
2023/10/01 12:44:34;;;;;;;17.13;8.40;;;22.70;99.90;;;;;;5073084;28;20416;-75
2023/10/01 12:47:15;;;;;;;16.63;8.20;;;22.80;99.90;;;;;;5073178;28;20079;-75
2023/10/01 12:49:58;;;;;;;16.08;8.40;;;22.90;99.90;;;;;;5072724;28;20040;-75
2023/10/01 12:52:30;;;;;;;15.43;7.53;;;22.90;99.90;;;;;;5073539;28;20127;-75
2023/10/01 12:55:00;;;;;;;14.88;7.57;;;23.10;99.90;;;;;;5072628;28;20037;-76
2023/10/01 12:57:33;;;;;;;14.80;8.40;;;23.30;99.90;;;;;;5072920;28;20041;-76
2023/10/01 13:02:43;;;;;;;14.18;7.82;;;23.50;99.60;;;;;;5072547;28;20040;-76
2023/10/01 13:05:20;;;;;;;14.85;7.60;;;23.80;99.50;;;;;;5056706;28;20098;-76
2023/10/01 13:07:56;;;;;;;14.13;7.75;;;24.00;99.30;;;;;;5072721;28;20036;-76
2023/10/01 13:10:35;;;;;;;13.35;7.13;;;24.00;98.60;;;;;;5072705;28;20040;-76
2023/10/01 13:13:05;;;;;;;16.85;7.38;;;24.30;98.10;;;;;;5072528;28;20044;-76
2023/10/01 13:15:31;;;;;;;15.57;7.30;;;24.40;97.20;;;;;;5072411;28;20471;-76
2023/10/01 13:18:00;;;;;;;14.75;7.43;;;24.40;96.80;;;;;;5072175;28;20090;-76
2023/10/01 13:20:28;;;;;;;15.57;7.63;;;24.40;96.10;;;;;;5072347;28;20086;-76
2023/10/01 13:23:08;;;;;;;14.23;7.80;;;24.30;96.50;;;;;;5072416;28;20489;-76
2023/10/01 13:25:34;;;;;;;16.27;7.63;;;24.20;96.60;;;;;;5072299;28;20032;-76
2023/10/01 13:28:06;;;;;;;13.85;7.35;;;24.20;97.20;;;;;;5055597;28;20036;-76
2023/10/01 13:31:03;;;;;;;16.25;7.55;;;24.20;96.90;;;;;;5072305;28;20036;-76
2023/10/01 13:33:20;;;;;;;14.65;7.97;;;24.10;96.90;;;;;;5073083;28;20048;-76
2023/10/01 13:35:58;;;;;;;14.85;7.75;;;24.10;96.90;;;;;;5072030;28;20066;-76
2023/10/01 14:10:53;;;;;;;18.05;8.20;;;24.10;96.20;;;;;;5071668;28;20048;-76
2023/10/01 14:13:29;;;;;;;16.17;7.90;;;23.90;95.90;;;;;;5071625;28;20044;-76
2023/10/01 14:16:22;;;;;;;15.50;8.23;;;23.90;96.20;;;;;;5071538;28;20516;-75
2023/10/01 14:18:57;;;;;;;14.98;7.55;;;23.80;96.40;;;;;;5071513;28;20072;-75
2023/10/01 14:21:25;;;;;;;17.08;8.00;;;23.60;97.00;;;;;;5071653;28;20497;-76
2023/10/01 14:23:52;;;;;;;14.63;8.10;;;23.60;97.30;;;;;;5071741;28;20127;-76
2023/10/01 14:26:21;;;;;;;16.30;8.50;;;23.40;97.50;;;;;;5071510;28;20115;-76
2023/10/01 14:28:49;;;;;;;15.00;7.53;;;23.30;97.80;;;;;;5071519;28;20072;-76
2023/10/01 14:34:03;;;;;;;16.05;7.38;;;23.10;98.40;;;;;;5071416;28;20090;-77
2023/10/01 14:36:29;;;;;;;18.67;8.55;;;23.00;98.80;;;;;;5071568;28;20218;-74
2023/10/01 14:38:58;;;;;;;15.73;8.35;;;22.90;99.20;;;;;;5071873;28;20413;-76
2023/10/01 14:41:28;;;;;;;16.20;9.13;;;22.80;99.50;;;;;;5072400;28;20037;-76
2023/10/01 14:43:56;;;;;;;16.23;8.32;;;22.70;99.80;;;;;;5075564;28;20036;-75
2023/10/01 14:46:30;;;;;;;15.60;8.13;;;22.60;99.90;;;;;;5075589;28;20044;-76